createdAt,value
2018-07-21T00:01:40.358Z,10.93
2018-07-21T00:04:10.146Z,10.13
2018-07-21T00:06:39.858Z,15.60
2018-07-21T00:09:12.330Z,12.33
2018-07-21T00:11:43.093Z,11.43
2018-07-21T00:14:13.259Z,11.70
2018-07-21T00:16:43.063Z,13.30
2018-07-21T00:19:12.805Z,11.00
2018-07-21T00:21:42.648Z,14.67
2018-07-21T00:24:12.439Z,11.70
2018-07-21T00:26:47.396Z,12.20
2018-07-21T00:29:19.168Z,11.43
2018-07-21T00:31:49.002Z,10.50
2018-07-21T00:34:18.712Z,10.57
2018-07-21T00:36:48.422Z,10.47
2018-07-21T00:39:18.146Z,13.87
2018-07-21T00:41:47.893Z,10.63
2018-07-21T00:44:17.770Z,11.03
2018-07-21T00:46:47.809Z,11.00
2018-07-21T00:49:18.020Z,11.33
2018-07-21T00:51:47.726Z,12.43
2018-07-21T00:54:17.484Z,10.47
2018-07-21T00:56:47.230Z,12.30
2018-07-21T00:59:17.182Z,10.83
2018-07-21T01:01:46.932Z,11.30
2018-07-21T01:04:16.644Z,11.07
2018-07-21T01:06:46.880Z,12.37
2018-07-21T01:09:17.108Z,11.10
2018-07-21T01:11:47.003Z,12.10
2018-07-21T01:14:17.010Z,11.77
2018-07-21T01:16:46.777Z,12.37
2018-07-21T01:19:16.626Z,10.37
2018-07-21T01:21:46.512Z,11.33
2018-07-21T01:24:16.331Z,13.07
2018-07-21T01:26:46.248Z,13.10
2018-07-21T01:29:16.193Z,12.07
2018-07-21T01:31:45.959Z,12.73
2018-07-21T01:34:15.678Z,11.50
2018-07-21T01:36:45.570Z,12.17
2018-07-21T01:39:15.418Z,12.57
2018-07-21T01:41:45.324Z,12.43
2018-07-21T01:44:15.142Z,12.23
2018-07-21T01:46:45.194Z,12.30
2018-07-21T01:49:15.034Z,13.47
2018-07-21T01:51:44.789Z,14.17
2018-07-21T01:54:14.510Z,12.27
2018-07-21T01:56:44.293Z,12.67
2018-07-21T01:59:14.220Z,11.97
2018-07-21T02:01:44.281Z,12.10
2018-07-21T02:04:14.133Z,12.60
2018-07-21T02:06:44.066Z,11.83
2018-07-21T02:09:13.940Z,12.57
2018-07-21T02:11:43.930Z,13.33
2018-07-21T02:14:13.889Z,12.83
2018-07-21T02:16:43.763Z,14.20
2018-07-21T02:19:13.934Z,13.97
2018-07-21T02:21:43.758Z,16.53
2018-07-21T02:24:13.625Z,17.17
2018-07-21T02:26:43.450Z,18.70
2018-07-21T02:29:13.624Z,17.40
2018-07-21T02:31:43.362Z,16.03
2018-07-21T02:34:13.112Z,15.00
2018-07-21T02:36:42.903Z,36.33
2018-07-21T02:39:13.209Z,34.47
2018-07-21T02:41:43.198Z,29.77
2018-07-21T02:44:13.161Z,32.27
2018-07-21T02:46:43.325Z,31.23
2018-07-21T02:49:13.021Z,31.40
2018-07-21T02:51:42.791Z,21.27
2018-07-21T02:54:12.803Z,20.67
2018-07-21T02:56:42.626Z,16.87
2018-07-21T02:59:12.504Z,16.87
2018-07-21T03:01:42.295Z,16.30
2018-07-21T03:04:12.432Z,17.80
2018-07-21T03:06:42.510Z,16.00
2018-07-21T03:09:13.265Z,16.00
2018-07-21T03:11:43.031Z,18.37
2018-07-21T03:14:12.869Z,15.17
2018-07-21T03:16:42.883Z,15.20
2018-07-21T03:19:12.755Z,14.23
2018-07-21T03:21:42.649Z,17.73
2018-07-21T03:24:12.446Z,14.80
2018-07-21T03:26:42.461Z,14.00
2018-07-21T03:29:12.788Z,16.07
2018-07-21T03:31:42.725Z,15.03
2018-07-21T03:34:12.483Z,14.87
2018-07-21T03:36:42.783Z,14.60
2018-07-21T03:39:13.061Z,14.50
2018-07-21T03:41:43.050Z,19.90
2018-07-21T03:44:13.503Z,13.63
2018-07-21T03:46:43.259Z,14.37
2018-07-21T03:49:13.382Z,13.23
2018-07-21T03:51:43.111Z,15.73
2018-07-21T03:54:12.822Z,10.33
2018-07-21T03:56:42.586Z,10.07
2018-07-21T03:59:12.654Z,9.90
2018-07-21T04:01:42.678Z,9.60
2018-07-21T04:04:12.449Z,9.57
2018-07-21T04:06:42.251Z,9.97
2018-07-21T04:09:12.430Z,9.57
2018-07-21T04:11:42.125Z,9.10
2018-07-21T04:14:11.804Z,8.83
2018-07-21T04:16:41.547Z,8.47
2018-07-21T04:19:11.565Z,9.00
2018-07-21T04:21:41.478Z,8.50
2018-07-21T04:24:11.223Z,9.63
2018-07-21T04:26:40.992Z,9.33
2018-07-21T04:29:10.908Z,9.60
2018-07-21T04:31:40.712Z,10.67
2018-07-21T04:34:10.993Z,10.53
2018-07-21T04:36:40.799Z,9.87
2018-07-21T04:39:11.826Z,10.90
2018-07-21T04:41:42.112Z,10.60
2018-07-21T04:44:12.207Z,10.63
2018-07-21T04:46:41.893Z,11.03
2018-07-21T04:49:11.603Z,10.30
2018-07-21T04:51:41.362Z,10.60
2018-07-21T04:54:11.275Z,10.07
2018-07-21T04:56:41.207Z,10.13
2018-07-21T04:59:10.964Z,10.53
2018-07-21T05:01:40.703Z,9.57
2018-07-21T05:04:10.527Z,9.67
2018-07-21T05:06:41.123Z,10.13
2018-07-21T05:09:12.407Z,9.27
2018-07-21T05:11:42.332Z,10.67
2018-07-21T05:14:12.172Z,9.83
2018-07-21T05:16:42.387Z,10.00
2018-07-21T05:19:12.453Z,10.87
2018-07-21T05:21:42.263Z,8.90
2018-07-21T05:24:12.091Z,9.93
2018-07-21T05:26:41.780Z,11.50
2018-07-21T05:29:11.510Z,9.50
2018-07-21T05:31:41.216Z,9.60
2018-07-21T05:34:10.906Z,9.17
2018-07-21T05:36:40.702Z,9.33
2018-07-21T05:39:11.236Z,8.47
2018-07-21T05:41:41.880Z,9.47
2018-07-21T05:44:11.603Z,9.13
2018-07-21T05:46:41.776Z,10.53
2018-07-21T05:49:11.873Z,10.10
2018-07-21T05:51:41.789Z,9.47
2018-07-21T05:54:11.492Z,8.43
2018-07-21T05:56:41.466Z,9.13
2018-07-21T05:59:11.186Z,11.27
2018-07-21T06:01:40.921Z,9.27
2018-07-21T06:04:10.716Z,11.27
2018-07-21T06:06:40.479Z,8.20
2018-07-21T06:09:11.542Z,11.60
2018-07-21T06:11:41.708Z,10.30
2018-07-21T06:14:12.093Z,15.10
2018-07-21T06:16:41.949Z,12.77
2018-07-21T06:19:11.903Z,12.40
2018-07-21T06:21:41.603Z,11.33
2018-07-21T06:24:11.304Z,13.97
2018-07-21T06:26:41.262Z,9.43
2018-07-21T06:29:10.998Z,11.57
2018-07-21T06:31:40.694Z,9.07
2018-07-21T06:34:10.618Z,9.83
2018-07-21T06:36:40.319Z,8.40
2018-07-21T06:39:11.657Z,8.33
2018-07-21T06:41:41.876Z,8.73
2018-07-21T06:44:11.797Z,8.87
2018-07-21T06:46:41.721Z,12.73
2018-07-21T06:49:11.536Z,7.20
2018-07-21T06:51:41.660Z,7.07
2018-07-21T06:54:11.390Z,7.73
2018-07-21T06:56:41.333Z,5.90
2018-07-21T06:59:11.092Z,7.53
2018-07-21T07:01:40.766Z,10.53
2018-07-21T07:04:10.550Z,5.60
2018-07-21T07:06:40.323Z,7.80
2018-07-21T07:09:11.432Z,5.60
2018-07-21T07:11:41.267Z,5.90
2018-07-21T07:14:11.120Z,6.60
2018-07-21T07:16:41.102Z,6.53
2018-07-21T07:19:10.825Z,6.90
2018-07-21T07:21:40.619Z,5.93
2018-07-21T07:24:10.378Z,8.23
2018-07-21T07:26:40.051Z,6.20
2018-07-21T07:29:10.066Z,7.57
2018-07-21T07:31:39.768Z,7.43
2018-07-21T07:34:09.535Z,9.17
2018-07-21T07:36:39.279Z,8.67
2018-07-21T07:39:10.226Z,7.70
2018-07-21T07:41:40.504Z,7.80
2018-07-21T07:44:10.229Z,5.70
2018-07-21T07:46:40.520Z,6.03
2018-07-21T07:49:10.315Z,5.90
2018-07-21T07:51:40.033Z,4.97
2018-07-21T07:54:09.811Z,11.30
2018-07-21T07:56:39.517Z,7.37
2018-07-21T07:59:09.419Z,5.90
2018-07-21T08:01:39.170Z,6.80
2018-07-21T08:04:08.976Z,6.63
2018-07-21T08:06:38.697Z,7.87
2018-07-21T08:09:10.697Z,6.27
2018-07-21T08:11:41.038Z,7.77
2018-07-21T08:14:10.752Z,8.83
2018-07-21T08:16:40.551Z,7.87
2018-07-21T08:19:10.383Z,8.80
2018-07-21T08:21:40.177Z,4.87
2018-07-21T08:24:10.402Z,5.20
2018-07-21T08:26:40.222Z,5.90
2018-07-21T08:29:10.092Z,5.90
2018-07-21T08:31:40.089Z,5.27
2018-07-21T08:34:10.109Z,5.50
2018-07-21T08:36:39.868Z,4.37
2018-07-21T08:39:10.978Z,6.93
2018-07-21T08:41:40.764Z,9.17
2018-07-21T08:44:10.758Z,9.00
2018-07-21T08:46:40.878Z,5.03
2018-07-21T08:49:10.620Z,5.10
2018-07-21T08:51:40.453Z,7.93
2018-07-21T08:54:10.329Z,8.63
2018-07-21T08:56:40.081Z,8.90
2018-07-21T08:59:10.079Z,4.57
2018-07-21T09:01:39.752Z,7.13
2018-07-21T09:04:09.451Z,7.60
2018-07-21T09:06:39.252Z,9.27
2018-07-21T09:09:11.133Z,8.57
2018-07-21T09:11:41.700Z,8.63
2018-07-21T09:14:11.486Z,5.47
2018-07-21T09:16:41.345Z,7.10
2018-07-21T09:19:11.028Z,8.10
2018-07-21T09:21:41.056Z,5.53
2018-07-21T09:24:10.843Z,5.77
2018-07-21T09:26:40.589Z,10.33
2018-07-21T09:29:10.325Z,8.93
2018-07-21T09:31:40.290Z,7.17
2018-07-21T09:34:10.080Z,5.90
2018-07-21T09:36:39.787Z,4.70
2018-07-21T09:39:10.970Z,6.13
2018-07-21T09:41:40.890Z,4.63
2018-07-21T09:44:10.615Z,9.43
2018-07-21T09:46:40.583Z,5.03
2018-07-21T09:49:10.410Z,5.90
2018-07-21T09:51:40.114Z,10.73
2018-07-21T09:54:10.054Z,6.33
2018-07-21T09:56:39.918Z,6.43
2018-07-21T09:59:09.626Z,7.70
2018-07-21T10:01:39.658Z,6.37
2018-07-21T10:04:09.352Z,9.10
2018-07-21T10:06:39.137Z,6.37
2018-07-21T10:09:10.013Z,5.37
2018-07-21T10:11:39.944Z,6.00
2018-07-21T10:14:10.041Z,6.73
2018-07-21T10:16:39.807Z,8.40
2018-07-21T10:19:09.751Z,6.50
2018-07-21T10:21:39.658Z,5.13
2018-07-21T10:24:14.484Z,7.53
2018-07-21T10:26:49.508Z,4.97
2018-07-21T10:29:19.247Z,5.73
2018-07-21T10:31:49.044Z,6.63
2018-07-21T10:34:18.733Z,6.83
2018-07-21T10:36:48.528Z,6.03
2018-07-21T10:39:18.259Z,5.77
2018-07-21T10:41:48.002Z,4.90
2018-07-21T10:44:17.833Z,6.20
2018-07-21T10:46:47.594Z,5.67
2018-07-21T10:49:17.383Z,5.70
2018-07-21T10:51:47.137Z,4.73
2018-07-21T10:54:16.826Z,5.00
2018-07-21T10:56:46.688Z,5.87
2018-07-21T10:59:16.384Z,5.47
2018-07-21T11:01:46.327Z,7.67
2018-07-21T11:04:16.656Z,5.57
2018-07-21T11:06:46.577Z,5.27
2018-07-21T11:09:16.498Z,5.13
2018-07-21T11:11:46.498Z,5.07
2018-07-21T11:14:16.289Z,12.93
2018-07-21T11:16:46.027Z,5.00
2018-07-21T11:19:15.833Z,5.07
2018-07-21T11:21:45.824Z,4.93
2018-07-21T11:24:15.779Z,6.97
2018-07-21T11:26:45.561Z,5.70
2018-07-21T11:29:15.241Z,7.63
2018-07-21T11:31:45.312Z,5.33
2018-07-21T11:34:15.118Z,5.13
2018-07-21T11:36:45.060Z,5.77
2018-07-21T11:39:14.776Z,5.10
2018-07-21T11:41:44.493Z,8.23
2018-07-21T11:44:14.655Z,5.47
2018-07-21T11:46:44.464Z,5.07
2018-07-21T11:49:14.524Z,5.80
2018-07-21T11:51:44.316Z,7.57
2018-07-21T11:54:14.148Z,4.73
2018-07-21T11:56:43.906Z,6.80
2018-07-21T11:59:14.915Z,5.63
2018-07-21T12:01:44.974Z,4.53
2018-07-21T12:04:15.614Z,4.87
2018-07-21T12:06:45.328Z,5.20
2018-07-21T12:09:15.103Z,4.90
2018-07-21T12:11:44.858Z,6.50
2018-07-21T12:14:14.598Z,5.77
2018-07-21T12:16:44.555Z,6.67
2018-07-21T12:19:14.453Z,5.53
2018-07-21T12:21:44.415Z,6.47
2018-07-21T12:24:14.184Z,5.40
2018-07-21T12:26:43.890Z,6.80
2018-07-21T12:29:13.741Z,7.03
2018-07-21T12:31:43.606Z,7.00
2018-07-21T12:34:13.384Z,6.77
2018-07-21T12:36:43.086Z,5.90
2018-07-21T12:39:12.833Z,6.47
2018-07-21T12:41:42.608Z,7.87
2018-07-21T12:44:12.672Z,8.37
2018-07-21T12:46:42.430Z,7.17
2018-07-21T12:49:12.278Z,8.50
2018-07-21T12:51:41.957Z,7.70
2018-07-21T12:54:11.748Z,8.73
2018-07-21T12:56:41.491Z,7.80
2018-07-21T12:59:12.230Z,6.20
2018-07-21T13:01:42.239Z,9.17
2018-07-21T13:04:11.976Z,6.07
2018-07-21T13:06:41.995Z,6.70
2018-07-21T13:09:12.900Z,7.10
2018-07-21T13:11:42.890Z,6.17
2018-07-21T13:14:12.572Z,7.73
2018-07-21T13:16:42.381Z,6.70
2018-07-21T13:19:12.082Z,7.07
2018-07-21T13:21:41.918Z,6.70
2018-07-21T13:24:11.661Z,6.30
2018-07-21T13:26:41.366Z,6.00
2018-07-21T13:29:11.077Z,6.37
2018-07-21T13:31:41.039Z,6.70
2018-07-21T13:34:10.770Z,6.40
2018-07-21T13:36:40.513Z,7.87
2018-07-21T13:39:12.033Z,7.60
2018-07-21T13:41:42.135Z,8.63
2018-07-21T13:44:11.940Z,7.63
2018-07-21T13:46:41.688Z,7.60
2018-07-21T13:49:11.424Z,7.70
2018-07-21T13:51:41.123Z,7.73
2018-07-21T13:54:11.024Z,6.87
2018-07-21T13:56:40.846Z,11.47
2018-07-21T13:59:10.570Z,7.47
2018-07-21T14:01:40.274Z,7.67
2018-07-21T14:04:10.009Z,8.77
2018-07-21T14:06:40.879Z,6.83
2018-07-21T14:09:10.792Z,7.97
2018-07-21T14:11:40.571Z,9.30
2018-07-21T14:14:10.370Z,9.90
2018-07-21T14:16:40.312Z,8.13
2018-07-21T14:19:10.193Z,11.47
2018-07-21T14:21:40.312Z,9.13
2018-07-21T14:24:10.189Z,8.20
2018-07-21T14:26:39.994Z,7.37
2018-07-21T14:29:09.729Z,8.20
2018-07-21T14:31:39.715Z,8.30
2018-07-21T14:34:09.493Z,7.83
2018-07-21T14:36:39.265Z,9.70
2018-07-21T14:39:10.438Z,7.63
2018-07-21T14:41:40.952Z,8.07
2018-07-21T14:44:11.446Z,7.97
2018-07-21T14:46:42.102Z,8.47
2018-07-21T14:49:12.244Z,8.53
2018-07-21T14:51:42.090Z,9.70
2018-07-21T14:54:11.765Z,8.23
2018-07-21T14:56:41.662Z,8.37
2018-07-21T14:59:11.367Z,7.80
2018-07-21T15:01:41.173Z,8.40
2018-07-21T15:04:10.918Z,10.37
2018-07-21T15:06:41.293Z,8.43
2018-07-21T15:09:12.110Z,10.07
2018-07-21T15:11:41.949Z,7.83
2018-07-21T15:14:11.718Z,9.27
2018-07-21T15:16:41.524Z,8.53
2018-07-21T15:19:11.384Z,8.33
2018-07-21T15:21:41.195Z,7.07
2018-07-21T15:24:11.046Z,12.00
2018-07-21T15:26:40.793Z,7.73
2018-07-21T15:29:10.538Z,10.23
2018-07-21T15:31:40.342Z,9.37
2018-07-21T15:34:10.134Z,7.13
2018-07-21T15:36:39.916Z,9.43
2018-07-21T15:39:10.138Z,10.13
2018-07-21T15:41:40.473Z,7.60
2018-07-21T15:44:10.394Z,10.57
2018-07-21T15:46:40.195Z,7.30
2018-07-21T15:49:10.439Z,8.37
2018-07-21T15:51:40.190Z,9.83
2018-07-21T15:54:10.001Z,8.80
2018-07-21T15:56:39.744Z,9.50
2018-07-21T15:59:09.507Z,9.40
2018-07-21T16:01:39.297Z,10.57
2018-07-21T16:04:09.062Z,10.90
2018-07-21T16:06:38.750Z,9.53
2018-07-21T16:09:10.034Z,11.80
2018-07-21T16:11:40.113Z,10.80
2018-07-21T16:14:10.000Z,11.70
2018-07-21T16:16:39.890Z,11.30
2018-07-21T16:19:09.593Z,11.53
2018-07-21T16:21:39.508Z,11.47
2018-07-21T16:24:09.188Z,11.43
2018-07-21T16:26:38.896Z,12.23
2018-07-21T16:29:08.936Z,12.33
2018-07-21T16:31:38.614Z,12.20
2018-07-21T16:34:08.401Z,13.17
2018-07-21T16:36:38.123Z,12.57
2018-07-21T16:39:09.657Z,11.80
2018-07-21T16:41:39.400Z,11.70
2018-07-21T16:44:09.127Z,13.60
2018-07-21T16:46:38.811Z,12.20
2018-07-21T16:49:08.537Z,14.97
2018-07-21T16:51:38.377Z,12.30
2018-07-21T16:54:08.156Z,11.77
2018-07-21T16:56:38.029Z,11.07
2018-07-21T16:59:07.734Z,11.87
2018-07-21T17:01:37.482Z,14.53
2018-07-21T17:04:07.208Z,11.17
2018-07-21T17:06:36.997Z,10.50
2018-07-21T17:09:08.850Z,10.27
2018-07-21T17:11:38.695Z,10.83
2018-07-21T17:14:09.399Z,10.43
2018-07-21T17:16:39.168Z,10.43
2018-07-21T17:19:08.952Z,11.67
2018-07-21T17:21:38.692Z,11.10
2018-07-21T17:24:08.554Z,10.47
2018-07-21T17:26:38.649Z,11.20
2018-07-21T17:29:09.383Z,10.77
2018-07-21T17:31:39.190Z,11.40
2018-07-21T17:34:08.974Z,11.70
2018-07-21T17:36:38.786Z,11.60
2018-07-21T17:39:09.599Z,12.60
2018-07-21T17:41:39.348Z,13.00
2018-07-21T17:44:09.543Z,12.47
2018-07-21T17:46:39.877Z,12.07
2018-07-21T17:49:09.599Z,13.23
2018-07-21T17:51:39.339Z,13.20
2018-07-21T17:54:09.383Z,12.93
2018-07-21T17:56:39.155Z,14.17
2018-07-21T17:59:08.847Z,13.50
2018-07-21T18:01:38.539Z,12.70
2018-07-21T18:04:08.555Z,13.50
2018-07-21T18:06:38.308Z,15.90
2018-07-21T18:09:08.910Z,15.50
2018-07-21T18:11:38.918Z,13.00
2018-07-21T18:14:09.051Z,14.00
2018-07-21T18:16:39.106Z,15.67
2018-07-21T18:19:08.827Z,14.70
2018-07-21T18:21:38.718Z,13.93
2018-07-21T18:24:08.561Z,16.33
2018-07-21T18:26:38.265Z,15.23
2018-07-21T18:29:08.137Z,17.83
2018-07-21T18:31:37.911Z,20.20
2018-07-21T18:34:08.361Z,18.87
2018-07-21T18:36:38.065Z,18.67
2018-07-21T18:39:09.856Z,17.93
2018-07-21T18:41:39.600Z,17.20
2018-07-21T18:44:09.554Z,17.47
2018-07-21T18:46:39.341Z,21.63
2018-07-21T18:49:09.060Z,16.03
2018-07-21T18:51:38.930Z,23.17
2018-07-21T18:54:08.649Z,21.97
2018-07-21T18:56:38.518Z,17.93
2018-07-21T18:59:08.272Z,15.97
2018-07-21T19:01:38.034Z,17.53
2018-07-21T19:04:07.772Z,20.13
2018-07-21T19:06:37.463Z,15.93
2018-07-21T19:09:09.485Z,14.33
2018-07-21T19:11:39.261Z,18.20
2018-07-21T19:14:09.530Z,17.23
2018-07-21T19:16:41.370Z,15.70
2018-07-21T19:19:11.115Z,23.80
2018-07-21T19:21:40.815Z,19.73
2018-07-21T19:24:10.531Z,20.90
2018-07-21T19:26:45.502Z,16.63
2018-07-21T19:29:15.306Z,17.20
2018-07-21T19:31:50.217Z,17.40
2018-07-21T19:34:19.924Z,18.00
2018-07-21T19:36:49.641Z,15.70
2018-07-21T19:39:19.347Z,20.50
2018-07-21T19:41:54.232Z,18.43
2018-07-21T19:44:24.009Z,18.17
2018-07-21T19:46:53.795Z,17.17
2018-07-21T19:49:23.663Z,15.60
2018-07-21T19:51:53.491Z,17.20
2018-07-21T19:54:23.435Z,20.97
2018-07-21T19:56:53.160Z,17.20
2018-07-21T19:59:22.929Z,18.13
2018-07-21T20:01:52.680Z,16.83
2018-07-21T20:04:22.463Z,17.73
2018-07-21T20:06:52.226Z,21.60
2018-07-21T20:09:22.109Z,22.03
2018-07-21T20:11:51.937Z,20.20
2018-07-21T20:14:22.081Z,18.53
2018-07-21T20:16:51.812Z,23.83
2018-07-21T20:19:21.550Z,17.27
2018-07-21T20:21:51.241Z,19.60
2018-07-21T20:24:21.056Z,17.30
2018-07-21T20:26:50.798Z,16.90
2018-07-21T20:29:20.513Z,19.00
2018-07-21T20:31:50.223Z,20.03
2018-07-21T20:34:19.927Z,106.10
2018-07-21T20:36:49.919Z,25.90
2018-07-21T20:39:19.637Z,22.13
2018-07-21T20:41:49.483Z,21.93
2018-07-21T20:44:19.243Z,21.30
2018-07-21T20:46:49.239Z,20.23
2018-07-21T20:49:18.960Z,22.70
2018-07-21T20:51:48.868Z,21.43
2018-07-21T20:54:18.765Z,21.13
2018-07-21T20:56:48.511Z,18.77
2018-07-21T20:59:18.228Z,20.00
2018-07-21T21:01:48.023Z,19.77
2018-07-21T21:04:17.816Z,18.13
2018-07-21T21:06:47.517Z,19.30
2018-07-21T21:09:17.572Z,18.53
2018-07-21T21:11:47.492Z,18.50
2018-07-21T21:14:18.064Z,19.70
2018-07-21T21:16:48.180Z,19.67
2018-07-21T21:19:18.051Z,20.27
2018-07-21T21:21:47.864Z,21.93
2018-07-21T21:24:17.629Z,20.73
2018-07-21T21:26:47.444Z,19.63
2018-07-21T21:29:17.157Z,19.67
2018-07-21T21:31:46.896Z,19.87
2018-07-21T21:34:16.617Z,19.63
2018-07-21T21:36:46.364Z,20.73
2018-07-21T21:39:16.155Z,19.67
2018-07-21T21:41:45.925Z,23.07
2018-07-21T21:44:15.661Z,22.03
2018-07-21T21:46:45.389Z,21.27
2018-07-21T21:49:15.142Z,19.17
2018-07-21T21:51:44.912Z,18.67
2018-07-21T21:54:14.604Z,20.37
2018-07-21T21:56:44.386Z,18.47
2018-07-21T21:59:14.128Z,19.73
2018-07-21T22:01:43.841Z,19.83
2018-07-21T22:04:13.815Z,21.83
2018-07-21T22:06:43.564Z,20.60
2018-07-21T22:09:13.376Z,20.83
2018-07-21T22:11:43.095Z,21.67
2018-07-21T22:14:12.823Z,19.73
2018-07-21T22:16:42.585Z,19.57
2018-07-21T22:19:12.600Z,20.63
2018-07-21T22:21:42.458Z,22.57
2018-07-21T22:24:12.187Z,25.50
2018-07-21T22:26:41.937Z,23.47
2018-07-21T22:29:11.697Z,20.40
2018-07-21T22:31:41.424Z,19.73
2018-07-21T22:34:11.428Z,20.83
2018-07-21T22:36:41.236Z,18.63
2018-07-21T22:39:12.164Z,22.43
2018-07-21T22:41:42.147Z,21.83
2018-07-21T22:44:11.907Z,21.53
2018-07-21T22:46:41.821Z,20.53
2018-07-21T22:49:11.581Z,19.93
2018-07-21T22:51:41.365Z,22.23
2018-07-21T22:54:11.109Z,21.03
2018-07-21T22:56:40.975Z,22.53
2018-07-21T22:59:10.681Z,24.07
2018-07-21T23:01:40.896Z,22.53
2018-07-21T23:04:10.913Z,23.77
2018-07-21T23:06:40.941Z,24.20
2018-07-21T23:09:10.912Z,26.63
2018-07-21T23:11:40.681Z,28.73
2018-07-21T23:14:10.515Z,29.30
2018-07-21T23:16:40.430Z,25.97
2018-07-21T23:19:10.187Z,28.30
2018-07-21T23:21:39.880Z,30.07
2018-07-21T23:24:10.410Z,29.73
2018-07-21T23:26:40.224Z,29.63
2018-07-21T23:29:09.982Z,29.33
2018-07-21T23:31:39.792Z,29.17
2018-07-21T23:34:09.841Z,29.10
2018-07-21T23:36:39.530Z,31.50
2018-07-21T23:39:10.877Z,28.87
2018-07-21T23:41:40.590Z,29.93
2018-07-21T23:44:10.742Z,28.93
2018-07-21T23:46:40.493Z,29.67
2018-07-21T23:49:10.293Z,30.93
2018-07-21T23:51:40.018Z,30.07
2018-07-21T23:54:09.787Z,31.93
2018-07-21T23:56:39.620Z,30.33
2018-07-21T23:59:09.559Z,29.23
